createdAt,value
2023-04-16T00:01:18.251Z,18.63
2023-04-16T00:03:53.412Z,20.80
2023-04-16T00:06:28.681Z,21.60
2023-04-16T00:09:03.676Z,20.37
2023-04-16T00:11:38.524Z,19.17
2023-04-16T00:14:13.369Z,20.10
2023-04-16T00:16:48.246Z,19.63
2023-04-16T00:19:23.209Z,19.03
2023-04-16T00:21:58.067Z,19.93
2023-04-16T00:24:32.933Z,18.30
2023-04-16T00:27:08.002Z,20.20
2023-04-16T00:29:42.868Z,19.43
2023-04-16T00:32:17.970Z,19.13
2023-04-16T00:34:52.827Z,19.13
2023-04-16T00:37:27.769Z,20.17
2023-04-16T00:40:02.722Z,20.83
2023-04-16T00:42:38.167Z,21.50
2023-04-16T00:45:13.079Z,19.10
2023-04-16T00:47:48.230Z,19.50
2023-04-16T00:50:23.716Z,19.87
2023-04-16T00:52:58.675Z,18.63
2023-04-16T00:55:34.629Z,19.47
2023-04-16T00:58:09.463Z,19.17
2023-04-16T01:00:44.297Z,20.07
2023-04-16T01:03:19.311Z,19.70
2023-04-16T01:05:54.309Z,17.50
2023-04-16T01:08:29.378Z,18.50
2023-04-16T01:11:05.303Z,18.70
2023-04-16T01:13:40.855Z,19.10
2023-04-16T01:16:15.760Z,16.40
2023-04-16T01:18:50.953Z,18.87
2023-04-16T01:21:26.533Z,17.57
2023-04-16T01:24:05.544Z,18.30
2023-04-16T01:26:41.243Z,17.00
2023-04-16T01:29:16.112Z,16.70
2023-04-16T01:31:51.319Z,16.40
2023-04-16T01:34:47.213Z,15.50
2023-04-16T01:37:22.501Z,16.20
2023-04-16T01:39:57.412Z,16.33
2023-04-16T01:42:32.519Z,16.37
2023-04-16T01:45:08.227Z,16.40
2023-04-16T01:47:43.287Z,16.50
2023-04-16T01:50:19.698Z,16.63
2023-04-16T01:52:54.570Z,16.50
2023-04-16T01:55:29.621Z,14.27
2023-04-16T01:58:04.467Z,15.47
2023-04-16T02:00:42.348Z,16.03
2023-04-16T02:03:18.537Z,15.50
2023-04-16T02:05:53.672Z,13.40
2023-04-16T02:08:28.653Z,15.63
2023-04-16T02:11:03.705Z,14.73
2023-04-16T02:13:38.598Z,14.77
2023-04-16T02:16:13.556Z,15.07
2023-04-16T02:18:58.886Z,15.10
2023-04-16T02:21:37.618Z,19.23
2023-04-16T02:24:12.604Z,15.70
2023-04-16T02:26:48.070Z,16.20
2023-04-16T02:29:25.984Z,16.63
2023-04-16T02:32:07.978Z,17.33
2023-04-16T02:34:43.613Z,17.27
2023-04-16T02:37:19.441Z,15.90
2023-04-16T02:39:54.345Z,16.70
2023-04-16T02:42:29.446Z,17.10
2023-04-16T02:45:04.721Z,15.87
2023-04-16T02:47:39.568Z,17.83
2023-04-16T02:50:14.572Z,17.37
2023-04-16T02:52:51.498Z,18.80
2023-04-16T02:55:26.475Z,17.53
2023-04-16T02:58:01.546Z,17.40
2023-04-16T03:00:38.002Z,16.17
2023-04-16T03:03:13.377Z,18.23
2023-04-16T03:05:48.847Z,15.97
2023-04-16T03:08:24.733Z,15.60
2023-04-16T03:10:59.586Z,17.57
2023-04-16T03:13:34.466Z,17.57
2023-04-16T03:16:09.441Z,15.37
2023-04-16T03:18:44.292Z,16.70
2023-04-16T03:21:19.184Z,16.10
2023-04-16T03:23:55.998Z,14.57
2023-04-16T03:26:30.937Z,17.87
2023-04-16T03:29:06.192Z,16.80
2023-04-16T03:31:41.424Z,15.93
2023-04-16T03:34:16.386Z,15.93
2023-04-16T03:36:51.676Z,15.83
2023-04-16T03:39:26.566Z,17.73
2023-04-16T03:42:02.239Z,16.77
2023-04-16T03:44:37.182Z,15.83
2023-04-16T03:47:12.155Z,17.50
2023-04-16T03:49:47.181Z,16.93
2023-04-16T03:52:22.392Z,19.63
2023-04-16T03:54:57.260Z,18.87
2023-04-16T03:57:35.080Z,19.50
2023-04-16T04:00:15.417Z,18.27
2023-04-16T04:03:01.069Z,19.30
2023-04-16T04:05:43.035Z,18.03
2023-04-16T04:08:20.764Z,18.30
2023-04-16T04:10:55.650Z,18.60
2023-04-16T04:13:32.229Z,18.63
2023-04-16T04:16:07.750Z,18.17
2023-04-16T04:18:44.298Z,17.40
2023-04-16T04:21:19.530Z,18.60
2023-04-16T04:23:56.148Z,18.27
2023-04-16T04:26:31.431Z,17.97
2023-04-16T04:29:06.539Z,18.77
2023-04-16T04:31:41.536Z,20.40
2023-04-16T04:34:16.656Z,18.63
2023-04-16T04:36:52.689Z,19.80
2023-04-16T04:39:28.202Z,16.60
2023-04-16T04:42:03.293Z,21.53
2023-04-16T04:44:38.263Z,18.90
2023-04-16T04:47:14.089Z,21.50
2023-04-16T04:49:49.018Z,19.67
2023-04-16T04:52:23.949Z,18.90
2023-04-16T04:54:59.263Z,18.80
2023-04-16T04:57:34.181Z,19.80
2023-04-16T05:00:10.930Z,20.10
2023-04-16T05:03:01.927Z,20.97
2023-04-16T05:05:37.226Z,19.00
2023-04-16T05:08:12.067Z,20.80
2023-04-16T05:10:46.936Z,19.07
2023-04-16T05:13:22.804Z,17.70
2023-04-16T05:15:58.500Z,17.53
2023-04-16T05:18:33.575Z,18.03
2023-04-16T05:21:08.452Z,17.50
2023-04-16T05:23:43.359Z,19.07
2023-04-16T05:26:18.355Z,18.57
2023-04-16T05:28:53.464Z,20.83
2023-04-16T05:31:28.393Z,23.40
2023-04-16T05:34:03.290Z,24.63
2023-04-16T05:36:38.207Z,29.07
2023-04-16T05:39:13.092Z,26.67
2023-04-16T05:41:48.071Z,24.27
2023-04-16T05:44:22.946Z,27.10
2023-04-16T05:46:57.880Z,27.10
2023-04-16T05:49:32.772Z,27.47
2023-04-16T05:52:07.664Z,29.80
2023-04-16T05:54:42.671Z,28.50
2023-04-16T05:57:17.509Z,27.30
2023-04-16T05:59:52.439Z,29.10
2023-04-16T06:02:27.457Z,28.73
2023-04-16T06:05:02.573Z,28.50
2023-04-16T06:07:37.543Z,30.47
2023-04-16T06:10:12.491Z,31.13
2023-04-16T06:12:47.529Z,28.03
2023-04-16T06:15:22.436Z,31.30
2023-04-16T06:18:00.300Z,32.73
2023-04-16T06:20:36.236Z,30.57
2023-04-16T06:23:11.200Z,31.00
2023-04-16T06:25:46.301Z,32.43
2023-04-16T06:28:21.338Z,31.50
2023-04-16T06:30:56.344Z,32.23
2023-04-16T06:33:32.200Z,29.80
2023-04-16T06:36:07.205Z,29.10
2023-04-16T06:38:42.556Z,30.67
2023-04-16T06:41:17.570Z,30.33
2023-04-16T06:43:52.686Z,29.37
2023-04-16T06:46:27.645Z,34.50
2023-04-16T06:49:02.832Z,34.83
2023-04-16T06:51:37.738Z,29.90
2023-04-16T06:54:12.724Z,30.80
2023-04-16T06:56:47.589Z,27.97
2023-04-16T06:59:22.448Z,29.77
2023-04-16T07:01:57.534Z,32.53
2023-04-16T07:04:32.483Z,30.53
2023-04-16T07:07:07.305Z,29.60
2023-04-16T07:09:42.198Z,33.20
2023-04-16T07:12:17.589Z,32.43
2023-04-16T07:14:52.990Z,30.97
2023-04-16T07:17:27.906Z,30.63
2023-04-16T07:20:02.778Z,29.70
2023-04-16T07:22:37.666Z,30.90
2023-04-16T07:25:12.618Z,31.67
2023-04-16T07:27:47.512Z,27.03
2023-04-16T07:30:22.508Z,27.83
2023-04-16T07:32:57.865Z,30.00
2023-04-16T07:35:32.983Z,27.43
2023-04-16T07:38:07.830Z,27.67
2023-04-16T07:40:42.949Z,26.13
2023-04-16T07:43:17.800Z,25.63
2023-04-16T07:45:52.736Z,26.80
2023-04-16T07:48:27.796Z,24.70
2023-04-16T07:51:02.827Z,23.27
2023-04-16T07:53:37.990Z,25.60
2023-04-16T07:56:12.916Z,26.93
2023-04-16T07:58:48.002Z,24.47
2023-04-16T08:01:22.896Z,24.87
2023-04-16T08:03:58.022Z,24.73
2023-04-16T08:06:36.397Z,24.60
2023-04-16T08:09:11.691Z,23.43
2023-04-16T08:11:47.002Z,22.70
2023-04-16T08:14:21.947Z,22.43
2023-04-16T08:16:59.918Z,23.23
2023-04-16T08:19:35.035Z,23.70
2023-04-16T08:22:09.924Z,25.60
2023-04-16T08:24:44.995Z,23.90
2023-04-16T08:27:20.458Z,23.67
2023-04-16T08:29:55.520Z,22.90
2023-04-16T08:32:30.494Z,23.53
2023-04-16T08:35:06.031Z,23.20
2023-04-16T08:37:41.129Z,23.03
2023-04-16T08:40:16.271Z,23.33
2023-04-16T08:42:59.044Z,21.80
2023-04-16T08:45:36.405Z,23.20
2023-04-16T08:48:12.160Z,22.00
2023-04-16T08:50:49.451Z,23.27
2023-04-16T08:53:43.747Z,22.27
2023-04-16T08:56:21.796Z,23.50
2023-04-16T08:58:58.527Z,26.87
2023-04-16T09:01:35.744Z,25.43
2023-04-16T09:04:11.514Z,26.90
2023-04-16T09:06:48.501Z,28.00
2023-04-16T09:09:23.772Z,26.03
2023-04-16T09:11:59.785Z,23.63
2023-04-16T09:14:36.033Z,24.27
2023-04-16T09:17:12.446Z,22.70
2023-04-16T09:19:47.488Z,25.10
2023-04-16T09:22:22.413Z,24.77
2023-04-16T09:24:57.391Z,24.13
2023-04-16T09:27:33.770Z,24.27
2023-04-16T09:30:27.996Z,23.47
2023-04-16T09:33:22.477Z,21.50
2023-04-16T09:35:57.899Z,21.93
2023-04-16T09:38:56.908Z,21.70
2023-04-16T09:41:39.481Z,20.30
2023-04-16T09:44:14.399Z,18.97
2023-04-16T09:46:49.479Z,19.53
2023-04-16T09:49:27.200Z,19.70
2023-04-16T09:52:02.446Z,18.33
2023-04-16T09:54:38.499Z,19.03
2023-04-16T09:57:13.600Z,20.57
2023-04-16T10:00:02.683Z,22.07
2023-04-16T10:02:43.101Z,19.77
2023-04-16T10:05:20.305Z,19.87
2023-04-16T10:08:01.771Z,20.43
2023-04-16T10:10:36.760Z,20.03
2023-04-16T10:13:14.455Z,19.73
2023-04-16T10:15:50.569Z,20.10
2023-04-16T10:18:25.933Z,21.10
2023-04-16T10:21:02.047Z,21.53
2023-04-16T10:23:38.875Z,21.67
2023-04-16T10:26:13.860Z,22.40
2023-04-16T10:28:49.093Z,22.00
2023-04-16T10:31:25.473Z,20.23
2023-04-16T10:34:01.082Z,23.27
2023-04-16T10:36:40.285Z,19.00
2023-04-16T10:39:22.465Z,20.80
2023-04-16T10:42:12.102Z,18.23
2023-04-16T10:44:47.137Z,19.50
2023-04-16T10:47:26.314Z,18.70
2023-04-16T10:50:01.381Z,18.33
2023-04-16T10:52:36.393Z,18.87
2023-04-16T10:55:17.416Z,19.40
2023-04-16T10:57:53.931Z,16.90
2023-04-16T11:00:28.929Z,18.07
2023-04-16T11:03:05.075Z,17.73
2023-04-16T11:05:47.151Z,16.33
2023-04-16T11:08:22.477Z,17.27
2023-04-16T11:10:59.042Z,14.27
2023-04-16T11:13:36.845Z,15.30
2023-04-16T11:16:16.773Z,15.03
2023-04-16T11:18:52.039Z,12.03
2023-04-16T11:21:27.118Z,11.90
2023-04-16T11:24:02.105Z,11.10
2023-04-16T11:26:36.978Z,11.33
2023-04-16T11:29:15.824Z,12.30
2023-04-16T11:31:54.794Z,12.63
2023-04-16T11:34:30.173Z,12.70
2023-04-16T11:37:05.327Z,11.97
2023-04-16T11:39:53.152Z,11.33
2023-04-16T11:42:30.487Z,12.90
2023-04-16T11:45:06.349Z,12.07
2023-04-16T11:47:52.957Z,12.10
2023-04-16T11:50:29.155Z,13.33
2023-04-16T11:53:06.241Z,11.57
2023-04-16T11:55:45.855Z,11.10
2023-04-16T11:58:22.333Z,11.43
2023-04-16T12:00:59.808Z,11.80
2023-04-16T12:03:46.844Z,10.67
2023-04-16T12:06:24.252Z,10.33
2023-04-16T12:09:01.367Z,11.00
2023-04-16T12:11:42.569Z,11.17
2023-04-16T12:14:17.494Z,9.83
2023-04-16T12:16:52.572Z,9.53
2023-04-16T12:19:27.634Z,8.63
2023-04-16T12:22:02.570Z,8.90
2023-04-16T12:24:37.859Z,9.80
2023-04-16T12:27:13.012Z,10.13
2023-04-16T12:30:07.198Z,9.50
2023-04-16T12:32:44.142Z,9.43
2023-04-16T12:35:33.637Z,8.20
2023-04-16T12:38:08.575Z,8.63
2023-04-16T12:40:43.521Z,9.00
2023-04-16T12:43:19.737Z,8.80
2023-04-16T12:45:54.812Z,7.90
2023-04-16T12:48:29.848Z,8.13
2023-04-16T12:51:06.467Z,7.60
2023-04-16T12:53:41.560Z,8.50
2023-04-16T12:56:16.712Z,8.10
2023-04-16T12:58:51.948Z,8.03
2023-04-16T13:01:26.869Z,7.70
2023-04-16T13:04:02.570Z,8.27
2023-04-16T13:06:38.428Z,8.30
2023-04-16T13:09:13.256Z,8.80
2023-04-16T13:11:48.382Z,8.63
2023-04-16T13:14:23.331Z,9.20
2023-04-16T13:16:58.240Z,8.27
2023-04-16T13:19:33.384Z,8.77
2023-04-16T13:22:09.422Z,9.03
2023-04-16T13:24:44.541Z,9.17
2023-04-16T13:27:20.399Z,10.10
2023-04-16T13:29:55.406Z,9.50
2023-04-16T13:32:30.742Z,9.70
2023-04-16T13:35:06.055Z,8.00
2023-04-16T13:37:40.981Z,9.70
2023-04-16T13:40:16.208Z,10.43
2023-04-16T13:42:51.620Z,10.17
2023-04-16T13:45:27.895Z,11.07
2023-04-16T13:48:03.271Z,10.87
2023-04-16T13:50:38.324Z,11.43
2023-04-16T13:53:13.270Z,11.93
2023-04-16T13:55:49.573Z,12.27
2023-04-16T13:58:25.869Z,10.43
2023-04-16T14:01:01.645Z,11.50
2023-04-16T14:03:38.447Z,11.87
2023-04-16T14:06:14.973Z,10.60
2023-04-16T14:08:49.888Z,11.30
2023-04-16T14:11:24.745Z,10.90
2023-04-16T14:13:59.712Z,12.13
2023-04-16T14:16:35.113Z,11.73
2023-04-16T14:19:10.603Z,12.30
2023-04-16T14:21:45.850Z,12.10
2023-04-16T14:24:20.774Z,13.93
2023-04-16T14:26:55.691Z,13.30
2023-04-16T14:29:31.014Z,13.00
2023-04-16T14:32:06.763Z,13.33
2023-04-16T14:34:41.785Z,13.23
2023-04-16T14:37:17.930Z,13.20
2023-04-16T14:39:52.813Z,12.50
2023-04-16T14:42:27.816Z,14.80
2023-04-16T14:45:06.372Z,15.57
2023-04-16T14:47:45.892Z,15.10
2023-04-16T14:50:21.184Z,15.53
2023-04-16T14:52:56.438Z,14.63
2023-04-16T14:55:32.171Z,15.57
2023-04-16T14:58:07.034Z,16.60
2023-04-16T15:00:42.059Z,16.07
2023-04-16T15:03:17.286Z,15.10
2023-04-16T15:05:55.776Z,18.43
2023-04-16T15:08:31.381Z,18.00
2023-04-16T15:11:06.223Z,18.40
2023-04-16T15:13:41.069Z,18.87
2023-04-16T15:16:16.132Z,17.63
2023-04-16T15:18:51.489Z,17.80
2023-04-16T15:21:27.882Z,20.00
2023-04-16T15:24:03.010Z,19.10
2023-04-16T15:26:38.049Z,20.37
2023-04-16T15:29:13.125Z,19.27
2023-04-16T15:31:48.411Z,20.10
2023-04-16T15:34:23.369Z,22.47
2023-04-16T15:36:58.238Z,19.17
2023-04-16T15:39:33.081Z,18.50
2023-04-16T15:42:08.361Z,19.13
2023-04-16T15:44:43.693Z,20.07
2023-04-16T15:47:18.560Z,19.43
2023-04-16T15:49:53.523Z,22.33
2023-04-16T15:52:28.402Z,21.97
2023-04-16T15:55:04.366Z,20.80
2023-04-16T15:57:39.623Z,23.73
2023-04-16T16:00:17.039Z,21.90
2023-04-16T16:02:52.549Z,22.87
2023-04-16T16:05:27.610Z,23.53
2023-04-16T16:08:02.613Z,23.27
2023-04-16T16:10:37.599Z,25.57
2023-04-16T16:13:14.075Z,24.20
2023-04-16T16:15:50.645Z,23.87
2023-04-16T16:18:25.553Z,27.80
2023-04-16T16:21:00.429Z,26.07
2023-04-16T16:23:35.296Z,25.07
2023-04-16T16:26:10.129Z,28.30
2023-04-16T16:28:45.536Z,25.80
2023-04-16T16:31:20.809Z,24.07
2023-04-16T16:33:55.789Z,25.97
2023-04-16T16:36:32.253Z,25.77
2023-04-16T16:39:07.123Z,25.73
2023-04-16T16:41:42.128Z,26.67
2023-04-16T16:44:17.220Z,24.90
2023-04-16T16:46:52.106Z,25.80
2023-04-16T16:49:26.943Z,26.23
2023-04-16T16:52:01.814Z,25.93
2023-04-16T16:54:36.981Z,24.60
2023-04-16T16:57:12.666Z,25.17
2023-04-16T16:59:48.659Z,24.97
2023-04-16T17:02:23.972Z,25.17
2023-04-16T17:04:59.371Z,27.93
2023-04-16T17:07:34.570Z,26.63
2023-04-16T17:10:19.926Z,25.57
2023-04-16T17:12:54.775Z,25.40
2023-04-16T17:15:29.633Z,25.63
2023-04-16T17:18:04.843Z,26.20
2023-04-16T17:20:39.732Z,26.13
2023-04-16T17:23:14.844Z,26.43
2023-04-16T17:25:50.650Z,26.83
2023-04-16T17:28:26.180Z,27.03
2023-04-16T17:31:01.939Z,24.47
2023-04-16T17:33:38.043Z,26.90
2023-04-16T17:36:13.077Z,27.43
2023-04-16T17:38:47.910Z,26.10
2023-04-16T17:41:23.119Z,28.60
2023-04-16T17:43:57.935Z,26.57
2023-04-16T17:46:32.842Z,26.77
2023-04-16T17:49:07.707Z,27.40
2023-04-16T17:51:44.497Z,26.17
2023-04-16T17:54:19.387Z,24.30
2023-04-16T17:56:54.250Z,24.90
2023-04-16T17:59:29.123Z,27.27
2023-04-16T18:02:04.067Z,27.47
2023-04-16T18:04:39.212Z,26.43
2023-04-16T18:07:14.672Z,26.90
2023-04-16T18:09:49.692Z,27.67
2023-04-16T18:12:24.588Z,27.70
2023-04-16T18:14:59.634Z,26.90
2023-04-16T18:17:34.965Z,30.00
2023-04-16T18:20:11.620Z,27.27
2023-04-16T18:22:46.601Z,25.50
2023-04-16T18:25:32.251Z,28.10
2023-04-16T18:28:09.801Z,27.00
2023-04-16T18:30:44.776Z,24.50
2023-04-16T18:33:48.805Z,27.17
2023-04-16T18:36:14.836Z,26.00
2023-04-16T18:39:00.136Z,26.67
2023-04-16T18:41:36.528Z,26.30
2023-04-16T18:44:11.455Z,26.50
2023-04-16T18:46:46.670Z,25.33
2023-04-16T18:49:21.674Z,27.53
2023-04-16T18:51:56.569Z,26.00
2023-04-16T18:54:31.553Z,26.90
2023-04-16T18:57:06.847Z,26.47
2023-04-16T18:59:41.881Z,26.40
2023-04-16T19:02:16.882Z,26.70
2023-04-16T19:04:51.815Z,27.87
2023-04-16T19:07:26.853Z,27.63
2023-04-16T19:10:05.208Z,27.03
2023-04-16T19:12:40.445Z,25.80
2023-04-16T19:15:15.696Z,23.90
2023-04-16T19:17:51.784Z,26.50
2023-04-16T19:20:27.033Z,25.47
2023-04-16T19:23:05.668Z,24.43
2023-04-16T19:25:40.941Z,25.70
2023-04-16T19:28:16.996Z,25.00
2023-04-16T19:30:53.268Z,25.60
2023-04-16T19:33:28.198Z,25.27
2023-04-16T19:36:03.473Z,25.90
2023-04-16T19:38:38.370Z,24.13
2023-04-16T19:41:13.283Z,24.70
2023-04-16T19:43:48.250Z,24.90
2023-04-16T19:46:23.712Z,23.93
2023-04-16T19:48:58.708Z,26.00
2023-04-16T19:51:33.738Z,24.10
2023-04-16T19:54:09.002Z,27.37
2023-04-16T19:56:43.974Z,27.97
2023-04-16T19:59:19.197Z,31.63
2023-04-16T20:01:54.287Z,32.00
2023-04-16T20:04:29.273Z,29.33
2023-04-16T20:07:04.496Z,31.07
2023-04-16T20:09:39.461Z,29.20
2023-04-16T20:12:14.589Z,33.27
2023-04-16T20:14:49.567Z,31.70
2023-04-16T20:17:24.443Z,30.73
2023-04-16T20:20:00.948Z,29.40
2023-04-16T20:22:42.790Z,33.67
2023-04-16T20:25:21.530Z,32.43
2023-04-16T20:27:56.507Z,31.53
2023-04-16T20:30:38.641Z,36.10
2023-04-16T20:33:13.664Z,32.87
2023-04-16T20:35:50.819Z,32.00
2023-04-16T20:38:25.978Z,33.83
2023-04-16T20:41:10.621Z,31.10
2023-04-16T20:43:45.897Z,32.50
2023-04-16T20:46:25.836Z,29.03
2023-04-16T20:49:01.195Z,33.40
2023-04-16T20:51:38.391Z,33.37
2023-04-16T20:54:13.940Z,33.23
2023-04-16T20:56:50.283Z,31.57
2023-04-16T20:59:25.727Z,30.47
2023-04-16T21:02:00.832Z,32.20
2023-04-16T21:04:35.966Z,31.63
2023-04-16T21:07:10.971Z,29.90
2023-04-16T21:09:45.873Z,30.70
2023-04-16T21:12:21.081Z,33.03
2023-04-16T21:14:57.136Z,28.70
2023-04-16T21:17:32.142Z,30.00
2023-04-16T21:20:10.672Z,30.27
2023-04-16T21:22:45.632Z,28.50
2023-04-16T21:25:20.481Z,28.70
2023-04-16T21:27:55.788Z,27.70
2023-04-16T21:30:30.840Z,29.83
2023-04-16T21:33:06.005Z,28.60
2023-04-16T21:35:41.185Z,26.50
2023-04-16T21:38:16.334Z,25.60
2023-04-16T21:40:53.928Z,27.70
2023-04-16T21:43:30.572Z,27.40
2023-04-16T21:46:05.480Z,26.30
2023-04-16T21:48:40.502Z,27.93
2023-04-16T21:51:15.706Z,27.80
2023-04-16T21:53:50.578Z,27.00
2023-04-16T21:56:25.922Z,27.83
2023-04-16T21:59:00.989Z,27.27
2023-04-16T22:01:35.879Z,26.90
2023-04-16T22:04:12.168Z,26.40
2023-04-16T22:06:47.116Z,26.80
2023-04-16T22:09:24.866Z,25.57
2023-04-16T22:12:00.332Z,26.73
2023-04-16T22:14:35.169Z,24.67
2023-04-16T22:17:10.057Z,22.90
2023-04-16T22:19:44.991Z,24.73
2023-04-16T22:22:21.668Z,24.87
2023-04-16T22:24:56.745Z,23.40
2023-04-16T22:27:31.734Z,25.10
2023-04-16T22:30:08.378Z,23.43
2023-04-16T22:32:43.302Z,23.27
2023-04-16T22:35:18.368Z,23.30
2023-04-16T22:37:53.230Z,26.00
2023-04-16T22:40:30.593Z,24.00
2023-04-16T22:43:05.583Z,23.47
2023-04-16T22:45:41.100Z,23.00
2023-04-16T22:48:16.330Z,22.63
2023-04-16T22:50:51.223Z,22.10
2023-04-16T22:53:27.223Z,23.47
2023-04-16T22:56:02.280Z,22.00
2023-04-16T22:58:37.128Z,21.90
2023-04-16T23:01:12.819Z,22.07
2023-04-16T23:03:47.793Z,22.60
2023-04-16T23:06:22.759Z,22.63
2023-04-16T23:08:57.618Z,22.27
2023-04-16T23:11:32.462Z,22.23
2023-04-16T23:14:08.293Z,22.23
2023-04-16T23:16:43.174Z,21.10
2023-04-16T23:19:18.157Z,22.57
2023-04-16T23:21:53.057Z,22.40
2023-04-16T23:24:27.927Z,23.43
2023-04-16T23:27:02.895Z,21.23
2023-04-16T23:29:37.740Z,21.93
2023-04-16T23:32:12.619Z,20.23
2023-04-16T23:34:47.503Z,20.90
2023-04-16T23:37:22.358Z,22.50
2023-04-16T23:39:57.307Z,22.00
2023-04-16T23:42:32.166Z,20.80
2023-04-16T23:45:08.167Z,22.37
2023-04-16T23:47:43.140Z,21.63
2023-04-16T23:50:18.123Z,21.40
2023-04-16T23:52:52.966Z,21.50
2023-04-16T23:55:27.957Z,24.20
2023-04-16T23:58:02.882Z,21.07
